createdAt,value
2022-08-14T00:01:33.039Z,18.60
2022-08-14T00:04:35.970Z,18.60
2022-08-14T00:07:07.141Z,18.60
2022-08-14T00:10:02.518Z,18.60
2022-08-14T00:12:57.211Z,18.60
2022-08-14T00:15:44.139Z,18.60
2022-08-14T00:19:05.535Z,18.60
2022-08-14T00:21:22.427Z,18.60
2022-08-14T00:24:07.941Z,18.60
2022-08-14T00:26:48.772Z,18.60
2022-08-14T00:29:30.712Z,18.60
2022-08-14T00:32:52.421Z,18.60
2022-08-14T00:35:10.100Z,18.60
2022-08-14T00:37:50.639Z,18.58
2022-08-14T00:40:35.511Z,18.60
2022-08-14T00:43:12.810Z,18.52
2022-08-14T00:45:52.282Z,18.50
2022-08-14T00:48:34.881Z,18.50
2022-08-14T00:51:14.630Z,18.50
2022-08-14T00:53:51.490Z,18.50
2022-08-14T00:56:31.323Z,18.50
2022-08-14T00:59:09.528Z,18.50
2022-08-14T01:01:49.283Z,18.50
2022-08-14T01:04:50.844Z,18.50
2022-08-14T01:07:24.846Z,18.50
2022-08-14T01:10:07.810Z,18.50
2022-08-14T01:12:44.428Z,18.50
2022-08-14T01:15:31.776Z,18.50
2022-08-14T01:18:38.745Z,18.50
2022-08-14T01:21:17.122Z,18.40
2022-08-14T01:23:55.621Z,18.40
2022-08-14T01:26:35.162Z,18.40
2022-08-14T01:29:16.249Z,18.40
2022-08-14T01:32:13.025Z,18.40
2022-08-14T01:35:20.041Z,18.40
2022-08-14T01:37:56.428Z,18.40
2022-08-14T01:40:41.107Z,18.34
2022-08-14T01:43:22.176Z,18.30
2022-08-14T01:46:06.503Z,18.30
2022-08-14T01:48:44.396Z,18.30
2022-08-14T01:51:25.011Z,18.30
2022-08-14T01:54:05.792Z,18.30
2022-08-14T01:56:44.581Z,18.30
2022-08-14T01:59:37.600Z,18.30
2022-08-14T02:02:19.966Z,18.30
2022-08-14T02:04:57.809Z,18.30
2022-08-14T02:07:53.238Z,18.30
2022-08-14T02:10:29.976Z,18.30
2022-08-14T02:13:08.537Z,18.30
2022-08-14T02:15:44.481Z,18.30
2022-08-14T02:18:20.786Z,18.30
2022-08-14T02:20:59.250Z,18.30
2022-08-14T02:23:36.639Z,18.30
2022-08-14T02:26:29.946Z,18.30
2022-08-14T02:29:11.822Z,18.30
2022-08-14T02:31:51.459Z,18.30
2022-08-14T02:34:32.201Z,18.30
2022-08-14T02:37:15.992Z,18.30
2022-08-14T02:39:52.244Z,18.30
2022-08-14T02:42:37.231Z,18.30
2022-08-14T02:45:15.608Z,18.30
2022-08-14T02:47:57.402Z,18.30
2022-08-14T02:50:34.243Z,18.30
2022-08-14T02:53:12.122Z,18.30
2022-08-14T02:55:51.539Z,18.30
2022-08-14T02:58:31.145Z,18.30
2022-08-14T03:01:08.846Z,18.30
2022-08-14T03:03:46.206Z,18.30
2022-08-14T03:06:48.888Z,18.30
2022-08-14T03:09:21.565Z,18.30
2022-08-14T03:11:58.082Z,18.30
2022-08-14T03:14:37.922Z,18.26
2022-08-14T03:17:16.055Z,18.28
2022-08-14T03:19:53.648Z,18.30
2022-08-14T03:22:29.978Z,18.30
2022-08-14T03:25:07.422Z,18.30
2022-08-14T03:27:48.188Z,18.30
2022-08-14T03:30:38.797Z,18.30
2022-08-14T03:33:17.483Z,18.30
2022-08-14T03:36:05.567Z,18.30
2022-08-14T03:39:12.651Z,18.30
2022-08-14T03:41:55.716Z,18.30
2022-08-14T03:45:25.438Z,18.30
2022-08-14T03:47:46.131Z,18.30
2022-08-14T03:50:30.701Z,18.30
2022-08-14T03:53:08.128Z,18.30
2022-08-14T03:55:45.419Z,18.30
2022-08-14T03:58:23.636Z,18.30
2022-08-14T04:01:11.660Z,18.30
2022-08-14T04:03:48.173Z,18.30
2022-08-14T04:06:31.590Z,18.30
2022-08-14T04:09:09.262Z,18.30
2022-08-14T04:11:45.639Z,18.30
2022-08-14T04:14:21.811Z,18.30
2022-08-14T04:16:59.728Z,18.30
2022-08-14T04:19:38.303Z,18.30
2022-08-14T04:22:15.069Z,18.30
2022-08-14T04:24:53.267Z,18.30
2022-08-14T04:27:30.599Z,18.32
2022-08-14T04:30:32.851Z,18.36
2022-08-14T04:33:17.143Z,18.40
2022-08-14T04:35:57.174Z,18.40
2022-08-14T04:38:51.148Z,18.44
2022-08-14T04:41:47.450Z,18.50
2022-08-14T04:44:35.974Z,18.50
2022-08-14T04:47:30.938Z,18.50
2022-08-14T04:50:10.535Z,18.50
2022-08-14T04:52:53.989Z,18.60
2022-08-14T04:55:33.774Z,18.60
2022-08-14T04:58:21.939Z,18.60
2022-08-14T05:01:12.986Z,18.70
2022-08-14T05:03:57.464Z,18.70
2022-08-14T05:06:37.530Z,18.78
2022-08-14T05:09:15.242Z,18.80
2022-08-14T05:11:53.879Z,18.90
2022-08-14T05:14:45.498Z,18.90
2022-08-14T05:17:32.176Z,18.92
2022-08-14T05:21:05.047Z,19.00
2022-08-14T05:23:19.889Z,19.00
2022-08-14T05:26:03.824Z,19.10
2022-08-14T05:28:43.237Z,19.10
2022-08-14T05:31:21.135Z,19.16
2022-08-14T05:33:57.419Z,19.20
2022-08-14T05:36:34.053Z,19.30
2022-08-14T05:39:12.409Z,19.30
2022-08-14T05:41:53.963Z,19.40
2022-08-14T05:44:30.914Z,19.50
2022-08-14T05:47:07.933Z,19.52
2022-08-14T05:49:46.167Z,19.60
2022-08-14T05:52:38.343Z,19.80
2022-08-14T05:55:18.219Z,19.90
2022-08-14T05:58:03.173Z,20.00
2022-08-14T06:00:44.448Z,20.10
2022-08-14T06:03:23.748Z,20.20
2022-08-14T06:06:01.178Z,20.30
2022-08-14T06:08:41.609Z,20.40
2022-08-14T06:11:20.206Z,20.48
2022-08-14T06:14:00.154Z,20.50
2022-08-14T06:16:36.149Z,20.50
2022-08-14T06:19:18.252Z,20.54
2022-08-14T06:21:59.393Z,20.50
2022-08-14T06:24:35.756Z,20.50
2022-08-14T06:27:12.307Z,20.50
2022-08-14T06:29:52.169Z,20.40
2022-08-14T06:32:38.692Z,20.40
2022-08-14T06:35:20.575Z,20.40
2022-08-14T06:37:58.520Z,20.44
2022-08-14T06:40:40.339Z,20.40
2022-08-14T06:43:21.102Z,20.40
2022-08-14T06:46:03.183Z,20.50
2022-08-14T06:48:39.263Z,20.50
2022-08-14T06:51:18.543Z,20.56
2022-08-14T06:53:57.260Z,20.60
2022-08-14T06:56:33.169Z,20.60
2022-08-14T06:59:09.298Z,20.60
2022-08-14T07:02:17.713Z,20.50
2022-08-14T07:05:12.613Z,20.52
2022-08-14T07:07:58.293Z,20.60
2022-08-14T07:10:35.013Z,20.60
2022-08-14T07:13:11.603Z,20.62
2022-08-14T07:15:55.084Z,20.70
2022-08-14T07:18:34.316Z,20.68
2022-08-14T07:21:11.642Z,20.60
2022-08-14T07:23:47.893Z,20.60
2022-08-14T07:26:27.762Z,20.60
2022-08-14T07:29:05.745Z,20.60
2022-08-14T07:31:43.122Z,20.60
2022-08-14T07:34:36.241Z,20.60
2022-08-14T07:37:15.556Z,20.66
2022-08-14T07:39:51.663Z,20.70
2022-08-14T07:42:28.577Z,20.70
2022-08-14T07:45:05.434Z,20.68
2022-08-14T07:47:47.287Z,20.60
2022-08-14T07:50:24.547Z,20.70
2022-08-14T07:53:11.299Z,20.70
2022-08-14T07:56:08.784Z,20.80
2022-08-14T07:58:51.618Z,20.80
2022-08-14T08:01:31.820Z,20.94
2022-08-14T08:04:16.697Z,21.10
2022-08-14T08:07:03.503Z,21.20
2022-08-14T08:09:48.308Z,21.30
2022-08-14T08:12:32.711Z,21.40
2022-08-14T08:15:11.178Z,21.50
2022-08-14T08:17:53.798Z,21.60
2022-08-14T08:20:52.233Z,21.80
2022-08-14T08:23:40.040Z,22.00
2022-08-14T08:26:17.553Z,22.24
2022-08-14T08:29:03.109Z,22.50
2022-08-14T08:31:52.146Z,22.72
2022-08-14T08:34:30.516Z,22.90
2022-08-14T08:37:07.534Z,23.10
2022-08-14T08:40:02.630Z,23.20
2022-08-14T08:42:44.662Z,23.40
2022-08-14T08:45:23.875Z,23.50
2022-08-14T08:48:20.638Z,23.60
2022-08-14T08:50:58.414Z,23.78
2022-08-14T08:53:38.611Z,23.92
2022-08-14T08:56:30.733Z,24.20
2022-08-14T08:59:31.103Z,24.38
2022-08-14T09:02:10.847Z,24.50
2022-08-14T09:04:53.568Z,24.60
2022-08-14T09:07:33.100Z,24.70
2022-08-14T09:10:11.469Z,24.90
2022-08-14T09:12:56.251Z,25.00
2022-08-14T09:15:42.465Z,24.98
2022-08-14T09:18:23.125Z,25.00
2022-08-14T09:21:00.328Z,25.26
2022-08-14T09:24:26.508Z,25.50
2022-08-14T09:26:34.234Z,25.60
2022-08-14T09:29:12.918Z,25.60
2022-08-14T09:31:57.731Z,25.70
2022-08-14T09:34:59.096Z,25.80
2022-08-14T09:37:58.031Z,25.90
2022-08-14T09:40:51.958Z,26.10
2022-08-14T09:43:41.407Z,26.10
2022-08-14T09:46:21.244Z,26.20
2022-08-14T09:49:16.235Z,26.30
2022-08-14T09:51:58.714Z,26.44
2022-08-14T09:54:45.141Z,26.70
2022-08-14T09:57:33.628Z,27.00
2022-08-14T10:00:30.619Z,27.10
2022-08-14T10:03:06.867Z,27.08
2022-08-14T10:05:43.752Z,27.14
2022-08-14T10:08:26.863Z,27.20
2022-08-14T10:11:14.839Z,27.00
2022-08-14T10:13:56.057Z,26.90
2022-08-14T10:16:45.594Z,26.80
2022-08-14T10:19:25.210Z,26.70
2022-08-14T10:23:15.381Z,26.60
2022-08-14T10:25:17.680Z,26.50
2022-08-14T10:28:04.830Z,26.46
2022-08-14T10:30:40.890Z,26.40
2022-08-14T10:33:32.616Z,26.30
2022-08-14T10:36:10.056Z,26.30
2022-08-14T10:39:08.243Z,26.30
2022-08-14T10:41:54.019Z,26.40
2022-08-14T10:44:38.796Z,26.50
2022-08-14T10:47:39.363Z,26.36
2022-08-14T10:50:18.595Z,26.20
2022-08-14T10:53:05.600Z,26.10
2022-08-14T10:55:46.073Z,25.90
2022-08-14T10:58:34.397Z,25.80
2022-08-14T11:01:12.385Z,25.60
2022-08-14T11:03:55.823Z,25.40
2022-08-14T11:06:34.674Z,25.30
2022-08-14T11:09:18.596Z,25.30
2022-08-14T11:12:33.969Z,25.20
2022-08-14T11:15:02.815Z,25.30
2022-08-14T11:17:39.303Z,25.40
2022-08-14T11:20:25.233Z,25.50
2022-08-14T11:23:08.673Z,25.70
2022-08-14T11:25:52.922Z,25.70
2022-08-14T11:28:47.432Z,25.80
2022-08-14T11:31:27.616Z,25.80
2022-08-14T11:34:31.930Z,25.90
2022-08-14T11:37:20.751Z,26.00
2022-08-14T11:40:03.310Z,26.10
2022-08-14T11:42:56.270Z,26.10
2022-08-14T11:45:37.110Z,26.20
2022-08-14T11:49:03.520Z,26.30
2022-08-14T11:51:30.404Z,26.50
2022-08-14T11:54:10.264Z,26.66
2022-08-14T11:56:50.835Z,26.70
2022-08-14T11:59:32.966Z,26.60
2022-08-14T12:03:01.162Z,26.60
2022-08-14T12:05:16.444Z,26.60
2022-08-14T12:07:57.238Z,26.60
2022-08-14T12:10:41.114Z,26.50
2022-08-14T12:13:22.510Z,26.60
2022-08-14T12:16:11.149Z,26.66
2022-08-14T12:19:02.333Z,26.60
2022-08-14T12:21:39.166Z,26.60
2022-08-14T12:24:36.901Z,26.60
2022-08-14T12:27:17.030Z,26.70
2022-08-14T12:30:00.575Z,26.80
2022-08-14T12:32:47.937Z,26.66
2022-08-14T12:35:25.163Z,26.60
2022-08-14T12:38:01.128Z,26.58
2022-08-14T12:40:46.604Z,26.40
2022-08-14T12:43:24.109Z,26.30
2022-08-14T12:46:00.632Z,26.20
2022-08-14T12:48:50.377Z,26.00
2022-08-14T12:51:31.608Z,25.90
2022-08-14T12:54:27.778Z,25.90
2022-08-14T12:57:19.693Z,25.80
2022-08-14T12:59:55.028Z,25.80
2022-08-14T13:02:37.942Z,25.80
2022-08-14T13:05:16.765Z,25.80
2022-08-14T13:07:54.198Z,25.90
2022-08-14T13:10:51.141Z,25.80
2022-08-14T13:13:34.527Z,25.70
2022-08-14T13:16:20.113Z,25.70
2022-08-14T13:19:01.991Z,25.60
2022-08-14T13:21:58.710Z,25.58
2022-08-14T13:24:34.744Z,25.50
2022-08-14T13:27:13.975Z,25.40
2022-08-14T13:29:52.458Z,25.40
2022-08-14T13:32:30.417Z,25.40
2022-08-14T13:35:12.089Z,25.40
2022-08-14T13:37:54.124Z,25.40
2022-08-14T13:40:30.491Z,25.50
2022-08-14T13:43:08.937Z,25.60
2022-08-14T13:46:00.573Z,25.76
2022-08-14T13:48:38.248Z,25.80
2022-08-14T13:51:17.713Z,25.80
2022-08-14T13:54:10.207Z,25.70
2022-08-14T13:56:49.089Z,25.70
2022-08-14T13:59:37.833Z,25.62
2022-08-14T14:02:33.767Z,25.60
2022-08-14T14:05:15.046Z,25.70
2022-08-14T14:07:56.111Z,25.80
2022-08-14T14:10:36.810Z,25.80
2022-08-14T14:13:20.258Z,25.80
2022-08-14T14:15:58.484Z,25.80
2022-08-14T14:18:42.495Z,25.80
2022-08-14T14:21:23.941Z,25.70
2022-08-14T14:23:58.950Z,25.70
2022-08-14T14:26:36.300Z,25.70
2022-08-14T14:29:14.966Z,25.80
2022-08-14T14:31:55.035Z,25.90
2022-08-14T14:34:37.849Z,26.00
2022-08-14T14:37:16.568Z,26.00
2022-08-14T14:40:52.865Z,26.00
2022-08-14T14:42:55.669Z,26.00
2022-08-14T14:45:33.020Z,26.04
2022-08-14T14:48:12.708Z,26.10
2022-08-14T14:50:54.182Z,26.20
2022-08-14T14:53:38.701Z,26.20
2022-08-14T14:56:50.686Z,26.20
2022-08-14T14:59:15.329Z,26.00
2022-08-14T15:02:00.784Z,25.90
2022-08-14T15:04:38.465Z,25.74
2022-08-14T15:07:16.945Z,25.70
2022-08-14T15:09:52.973Z,25.68
2022-08-14T15:12:55.359Z,25.70
2022-08-14T15:15:25.452Z,25.70
2022-08-14T15:18:01.818Z,25.70
2022-08-14T15:20:41.047Z,25.72
2022-08-14T15:23:18.650Z,25.70
2022-08-14T15:25:59.348Z,25.70
2022-08-14T15:28:38.669Z,25.70
2022-08-14T15:31:15.174Z,25.60
2022-08-14T15:34:44.468Z,25.50
2022-08-14T15:37:06.521Z,25.40
2022-08-14T15:39:49.279Z,25.30
2022-08-14T15:42:27.153Z,25.20
2022-08-14T15:45:03.688Z,25.16
2022-08-14T15:47:41.543Z,25.10
2022-08-14T15:50:19.523Z,25.10
2022-08-14T15:52:55.975Z,25.20
2022-08-14T15:55:32.279Z,25.20
2022-08-14T15:58:14.428Z,25.20
2022-08-14T16:01:50.600Z,25.30
2022-08-14T16:04:24.066Z,25.30
2022-08-14T16:07:00.796Z,25.30
2022-08-14T16:09:36.940Z,25.32
2022-08-14T16:12:15.202Z,25.40
2022-08-14T16:14:56.438Z,25.40
2022-08-14T16:17:33.359Z,25.32
2022-08-14T16:20:12.750Z,25.30
2022-08-14T16:23:12.247Z,25.30
2022-08-14T16:25:52.601Z,25.20
2022-08-14T16:28:29.188Z,25.14
2022-08-14T16:31:05.903Z,25.10
2022-08-14T16:33:59.772Z,25.06
2022-08-14T16:36:38.989Z,25.00
2022-08-14T16:39:28.630Z,25.00
2022-08-14T16:42:38.265Z,24.90
2022-08-14T16:45:02.707Z,24.90
2022-08-14T16:47:39.795Z,24.90
2022-08-14T16:50:40.141Z,24.80
2022-08-14T16:53:17.211Z,24.80
2022-08-14T16:56:23.190Z,24.70
2022-08-14T16:59:15.929Z,24.70
2022-08-14T17:02:05.199Z,24.60
2022-08-14T17:04:42.980Z,24.60
2022-08-14T17:07:25.795Z,24.50
2022-08-14T17:10:12.392Z,24.50
2022-08-14T17:12:48.643Z,24.40
2022-08-14T17:15:26.169Z,24.40
2022-08-14T17:18:02.780Z,24.30
2022-08-14T17:21:01.771Z,24.20
2022-08-14T17:23:41.024Z,24.20
2022-08-14T17:26:40.877Z,24.10
2022-08-14T17:29:23.338Z,24.00
2022-08-14T17:32:28.589Z,23.90
2022-08-14T17:35:17.410Z,23.82
2022-08-14T17:37:55.820Z,23.72
2022-08-14T17:40:35.531Z,23.68
2022-08-14T17:43:13.310Z,23.60
2022-08-14T17:45:51.099Z,23.50
2022-08-14T17:49:15.749Z,23.40
2022-08-14T17:51:30.202Z,23.34
2022-08-14T17:54:08.412Z,23.30
2022-08-14T17:56:45.950Z,23.20
2022-08-14T17:59:24.132Z,23.04
2022-08-14T18:02:01.484Z,22.96
2022-08-14T18:04:41.332Z,22.80
2022-08-14T18:08:00.481Z,22.70
2022-08-14T18:10:52.322Z,22.56
2022-08-14T18:13:17.256Z,22.40
2022-08-14T18:15:56.003Z,22.30
2022-08-14T18:18:32.384Z,22.20
2022-08-14T18:21:42.736Z,22.10
2022-08-14T18:24:20.043Z,21.90
2022-08-14T18:27:09.139Z,21.80
2022-08-14T18:29:54.522Z,21.70
2022-08-14T18:32:55.135Z,21.60
2022-08-14T18:35:59.968Z,21.50
2022-08-14T18:38:55.120Z,21.32
2022-08-14T18:41:38.053Z,21.20
2022-08-14T18:44:14.923Z,21.14
2022-08-14T18:47:32.639Z,21.08
2022-08-14T18:50:31.302Z,20.90
2022-08-14T18:53:12.969Z,20.80
2022-08-14T18:56:02.016Z,20.80
2022-08-14T18:58:57.049Z,20.70
2022-08-14T19:01:35.577Z,20.70
2022-08-14T19:04:38.545Z,20.68
2022-08-14T19:07:25.109Z,20.60
2022-08-14T19:10:06.856Z,20.60
2022-08-14T19:13:11.981Z,20.50
2022-08-14T19:16:04.736Z,20.50
2022-08-14T19:18:53.784Z,20.40
2022-08-14T19:21:42.518Z,20.30
2022-08-14T19:24:29.198Z,20.30
2022-08-14T19:27:26.375Z,20.30
2022-08-14T19:30:32.092Z,20.28
2022-08-14T19:33:46.487Z,20.24
2022-08-14T19:36:29.074Z,20.30
2022-08-14T19:39:08.013Z,20.26
2022-08-14T19:41:51.996Z,20.26
2022-08-14T19:44:36.386Z,20.30
2022-08-14T19:47:13.592Z,20.30
2022-08-14T19:50:24.593Z,20.30
2022-08-14T19:52:49.285Z,20.36
2022-08-14T19:55:34.178Z,20.36
2022-08-14T19:58:12.415Z,20.36
2022-08-14T20:00:59.699Z,20.36
2022-08-14T20:03:59.856Z,20.34
2022-08-14T20:06:46.639Z,20.30
2022-08-14T20:11:05.756Z,20.30
2022-08-14T20:12:28.889Z,20.30
2022-08-14T20:15:17.916Z,20.28
2022-08-14T20:17:57.653Z,20.20
2022-08-14T20:20:39.027Z,20.20
2022-08-14T20:23:20.332Z,20.12
2022-08-14T20:25:58.628Z,20.10
2022-08-14T20:28:51.427Z,20.10
2022-08-14T20:31:37.290Z,20.00
2022-08-14T20:34:25.173Z,20.00
2022-08-14T20:37:22.074Z,19.90
2022-08-14T20:39:58.981Z,19.90
2022-08-14T20:42:56.540Z,19.82
2022-08-14T20:45:42.018Z,19.80
2022-08-14T20:48:53.204Z,19.74
2022-08-14T20:51:36.501Z,19.70
2022-08-14T20:54:16.126Z,19.60
2022-08-14T20:56:53.682Z,19.60
2022-08-14T20:59:32.224Z,19.52
2022-08-14T21:02:49.762Z,19.50
2022-08-14T21:05:33.755Z,19.40
2022-08-14T21:08:22.298Z,19.32
2022-08-14T21:11:01.091Z,19.30
2022-08-14T21:14:24.875Z,19.20
2022-08-14T21:16:41.001Z,19.20
2022-08-14T21:19:32.032Z,19.10
2022-08-14T21:22:12.435Z,19.10
2022-08-14T21:24:49.913Z,19.00
2022-08-14T21:27:39.978Z,19.00
2022-08-14T21:30:41.867Z,18.90
2022-08-14T21:33:29.817Z,18.90
2022-08-14T21:36:12.482Z,18.80
2022-08-14T21:38:59.105Z,18.70
2022-08-14T21:41:43.189Z,18.70
2022-08-14T21:44:43.086Z,18.60
2022-08-14T21:47:23.602Z,18.60
2022-08-14T21:49:59.713Z,18.50
2022-08-14T21:52:51.489Z,18.40
2022-08-14T21:55:34.094Z,18.40
2022-08-14T21:58:53.373Z,18.30
2022-08-14T22:01:10.705Z,18.30
2022-08-14T22:03:54.612Z,18.20
2022-08-14T22:06:31.695Z,18.20
2022-08-14T22:09:09.829Z,18.10
2022-08-14T22:11:46.295Z,18.10
2022-08-14T22:14:32.073Z,18.00
2022-08-14T22:17:13.172Z,18.00
2022-08-14T22:19:54.941Z,18.00
2022-08-14T22:22:32.912Z,17.90
2022-08-14T22:25:17.302Z,17.90
2022-08-14T22:27:56.221Z,17.90
2022-08-14T22:30:32.740Z,17.90
2022-08-14T22:33:13.267Z,17.90
2022-08-14T22:35:49.953Z,17.90
2022-08-14T22:38:36.100Z,17.84
2022-08-14T22:41:29.526Z,17.82
2022-08-14T22:44:15.065Z,17.80
2022-08-14T22:46:52.711Z,17.80
2022-08-14T22:50:31.744Z,17.80
2022-08-14T22:52:32.402Z,17.80
2022-08-14T22:55:14.174Z,17.80
2022-08-14T22:57:50.411Z,17.80
2022-08-14T23:00:31.470Z,17.70
2022-08-14T23:03:17.263Z,17.70
2022-08-14T23:05:54.685Z,17.70
2022-08-14T23:08:57.942Z,17.70
2022-08-14T23:11:27.258Z,17.70
2022-08-14T23:14:05.736Z,17.72
2022-08-14T23:16:51.616Z,17.80
2022-08-14T23:19:34.811Z,17.80
2022-08-14T23:22:11.905Z,17.80
2022-08-14T23:24:53.250Z,17.80
2022-08-14T23:28:02.962Z,17.90
2022-08-14T23:30:33.915Z,17.90
2022-08-14T23:33:16.841Z,17.90
2022-08-14T23:35:58.741Z,17.90
2022-08-14T23:38:36.047Z,17.90
2022-08-14T23:41:14.722Z,17.90
2022-08-14T23:43:57.172Z,17.90
2022-08-14T23:46:35.044Z,17.82
2022-08-14T23:49:12.416Z,17.80
2022-08-14T23:52:51.507Z,17.80
2022-08-14T23:54:48.392Z,17.80
2022-08-14T23:57:25.626Z,17.70
